Time;durP1;ratioP1;P1;durP2;ratioP2;P2;SDS_P1;SDS_P2;PMS_P1;PMS_P2;Temp;Humidity;BMP_temperature;BMP_pressure;BME280_temperature;BME280_humidity;BME280_pressure;Samples;Min_cycle;Max_cycle;Signal;HPM_P1;HPM_P2
2022/04/03 00:01:42;;;;;;;6.37;2.60;;;-1.40;99.90;;;;;;5048860;28;20045;-66
2022/04/03 00:04:08;;;;;;;6.73;3.10;;;-1.40;99.90;;;;;;5031133;28;20090;-68
2022/04/03 00:06:33;;;;;;;8.63;3.60;;;-1.30;99.90;;;;;;5049785;28;20408;-67
2022/04/03 00:08:59;;;;;;;7.82;3.30;;;-1.30;99.90;;;;;;5049680;28;20188;-66
2022/04/03 00:11:26;;;;;;;11.23;3.10;;;-1.30;99.90;;;;;;5049557;28;20408;-66
2022/04/03 00:13:52;;;;;;;8.82;3.50;;;-1.20;99.90;;;;;;5048421;28;20438;-69
2022/04/03 00:16:18;;;;;;;7.30;3.60;;;-1.10;99.90;;;;;;5048989;28;20099;-67
2022/04/03 00:18:45;;;;;;;9.43;4.03;;;-1.10;99.90;;;;;;5049383;28;20052;-68
2022/04/03 00:21:13;;;;;;;9.80;3.67;;;-1.00;99.90;;;;;;5049629;28;20490;-69
2022/04/03 00:23:39;;;;;;;9.70;4.27;;;-1.00;99.90;;;;;;5049128;28;20049;-70
2022/04/03 00:26:05;;;;;;;9.40;3.78;;;-1.00;99.90;;;;;;5031307;28;20063;-69
2022/04/03 00:28:31;;;;;;;19.05;4.10;;;-0.90;99.90;;;;;;5049438;28;20131;-68
2022/04/03 00:30:57;;;;;;;8.73;4.10;;;-0.80;99.90;;;;;;5048854;28;20155;-68
2022/04/03 00:33:23;;;;;;;8.80;3.60;;;-0.80;99.90;;;;;;5048827;28;20081;-69
2022/04/03 00:35:50;;;;;;;6.32;3.58;;;-0.70;99.90;;;;;;5049296;28;20128;-70
2022/04/03 00:38:16;;;;;;;11.55;4.07;;;-0.70;99.90;;;;;;5030655;28;20118;-69
2022/04/03 00:40:45;;;;;;;13.65;4.07;;;-0.60;99.90;;;;;;5049315;28;20205;-68
2022/04/03 00:43:11;;;;;;;7.30;3.65;;;-0.60;99.90;;;;;;5049294;28;20408;-73
2022/04/03 00:45:38;;;;;;;12.43;3.38;;;-0.50;99.90;;;;;;5048887;28;20040;-77
2022/04/03 00:48:04;;;;;;;10.15;4.10;;;-0.50;99.90;;;;;;5031070;28;20103;-68
2022/04/03 00:50:29;;;;;;;8.77;3.83;;;-0.50;99.90;;;;;;5049136;28;20053;-72
2022/04/03 00:52:55;;;;;;;7.03;3.58;;;-0.40;99.90;;;;;;5049204;28;20103;-73
2022/04/03 00:55:21;;;;;;;7.10;3.47;;;-0.40;99.90;;;;;;5031016;28;20054;-68
2022/04/03 00:57:46;;;;;;;12.23;4.50;;;-0.30;99.90;;;;;;5048794;28;20393;-68
2022/04/03 01:00:13;;;;;;;10.48;4.60;;;-0.30;99.90;;;;;;5031049;28;20152;-66
2022/04/03 01:02:40;;;;;;;9.00;4.15;;;-0.30;99.90;;;;;;5031131;28;20484;-67
2022/04/03 01:05:07;;;;;;;11.80;4.00;;;-0.20;99.90;;;;;;5048715;28;20052;-68
2022/04/03 01:07:33;;;;;;;11.25;4.93;;;-0.20;99.90;;;;;;5049327;28;20049;-68
2022/04/03 01:09:59;;;;;;;12.80;4.65;;;-0.20;99.90;;;;;;5049190;28;20057;-67
2022/04/03 01:12:25;;;;;;;11.70;5.20;;;-0.20;99.90;;;;;;5031560;28;20084;-69
2022/04/03 01:14:50;;;;;;;11.27;4.00;;;-0.20;99.90;;;;;;5052384;28;20052;-67
2022/04/03 01:17:16;;;;;;;10.00;4.30;;;-0.30;99.90;;;;;;5034718;28;20498;-68
2022/04/03 01:19:42;;;;;;;10.02;4.30;;;-0.30;99.90;;;;;;5052311;28;20044;-68
2022/04/03 01:22:08;;;;;;;7.88;4.20;;;-0.30;99.90;;;;;;5052955;28;20045;-68
2022/04/03 01:24:34;;;;;;;10.60;4.13;;;-0.30;99.90;;;;;;5052213;28;20555;-68
2022/04/03 01:27:00;;;;;;;5.30;3.03;;;-0.30;99.90;;;;;;5052320;28;20504;-68
2022/04/03 01:29:26;;;;;;;7.70;3.78;;;-0.20;99.90;;;;;;5026323;28;20053;-67
2022/04/03 01:31:52;;;;;;;8.45;3.45;;;-0.20;99.90;;;;;;5052521;28;20428;-68
2022/04/03 01:34:20;;;;;;;10.40;4.10;;;-0.20;99.90;;;;;;5051797;28;20060;-70
2022/04/03 01:36:47;;;;;;;6.82;3.15;;;-0.30;99.90;;;;;;5052225;28;20377;-67
2022/04/03 01:39:13;;;;;;;11.45;3.58;;;-0.30;99.90;;;;;;5052425;28;20045;-68
2022/04/03 01:41:40;;;;;;;6.95;3.22;;;-0.30;99.90;;;;;;5051214;28;20068;-68
2022/04/03 01:44:07;;;;;;;6.20;3.08;;;-0.30;99.90;;;;;;5052252;28;20103;-67
2022/04/03 01:46:33;;;;;;;6.15;3.17;;;-0.30;99.90;;;;;;5051732;28;20055;-68
2022/04/03 01:48:59;;;;;;;8.27;3.22;;;-0.30;99.90;;;;;;5050290;28;20041;-67
2022/04/03 01:51:24;;;;;;;11.80;3.35;;;-0.30;99.90;;;;;;5052166;28;20076;-66
2022/04/03 01:53:50;;;;;;;9.05;3.08;;;-0.30;99.90;;;;;;5050001;28;20053;-68
2022/04/03 01:56:16;;;;;;;5.80;3.25;;;-0.20;99.90;;;;;;5050127;28;20527;-71
2022/04/03 01:58:41;;;;;;;8.35;3.50;;;-0.30;99.90;;;;;;5051538;28;20056;-69
2022/04/03 02:01:07;;;;;;;7.38;3.15;;;-0.20;99.90;;;;;;5050975;28;20168;-69
2022/04/03 02:03:33;;;;;;;7.18;3.50;;;-0.20;99.90;;;;;;5051155;28;20170;-69
2022/04/03 02:05:58;;;;;;;5.68;3.10;;;-0.20;99.90;;;;;;5051443;28;20044;-68
2022/04/03 02:08:25;;;;;;;10.30;3.97;;;-0.20;99.90;;;;;;5051968;28;20495;-70
2022/04/03 02:10:51;;;;;;;7.95;3.80;;;-0.20;99.90;;;;;;5051566;28;20053;-67
2022/04/03 02:13:17;;;;;;;10.18;4.15;;;-0.20;99.90;;;;;;5051402;28;20041;-69
2022/04/03 02:15:43;;;;;;;7.15;3.35;;;-0.20;99.90;;;;;;5051598;28;20045;-68
2022/04/03 02:18:09;;;;;;;8.10;3.35;;;-0.20;99.90;;;;;;5051704;28;20037;-68
2022/04/03 02:20:36;;;;;;;7.97;3.35;;;-0.30;99.90;;;;;;5051038;28;20071;-68
2022/04/03 02:23:03;;;;;;;7.25;3.40;;;-0.20;99.90;;;;;;5051362;28;20433;-68
2022/04/03 02:25:30;;;;;;;7.25;3.28;;;-0.20;99.90;;;;;;5050642;28;20511;-68
2022/04/03 02:27:56;;;;;;;9.20;3.30;;;-0.20;99.90;;;;;;5049620;28;20048;-67
2022/04/03 02:30:22;;;;;;;7.30;3.35;;;-0.20;99.90;;;;;;5051192;28;20033;-70
2022/04/03 02:32:47;;;;;;;7.80;3.45;;;-0.20;99.90;;;;;;5050949;28;20072;-68
2022/04/03 02:35:13;;;;;;;5.97;3.15;;;-0.20;99.90;;;;;;5033111;28;20052;-69
2022/04/03 02:37:41;;;;;;;8.45;2.60;;;-0.30;99.90;;;;;;5050342;28;20040;-70
2022/04/03 02:40:09;;;;;;;5.85;2.88;;;-0.30;99.90;;;;;;5050511;28;20514;-69
2022/04/03 02:42:36;;;;;;;6.97;3.33;;;-0.20;99.90;;;;;;5050049;28;20156;-69
2022/04/03 02:45:04;;;;;;;11.60;3.25;;;-0.30;99.90;;;;;;5050753;28;20045;-68
2022/04/03 02:47:29;;;;;;;5.70;3.17;;;-0.20;99.90;;;;;;5051015;28;20096;-70
2022/04/03 02:49:55;;;;;;;9.00;3.15;;;-0.20;99.90;;;;;;5050612;28;20540;-69
2022/04/03 02:52:21;;;;;;;5.32;2.63;;;0.20;99.90;;;;;;5050758;28;20055;-69
2022/04/03 02:54:47;;;;;;;7.30;2.55;;;-0.20;99.90;;;;;;5050659;28;20102;-68
2022/04/03 02:57:15;;;;;;;6.40;2.90;;;-0.20;99.90;;;;;;5049425;28;20093;-69
2022/04/03 02:59:41;;;;;;;8.02;2.83;;;-0.10;99.90;;;;;;5050580;28;20091;-68
2022/04/03 03:02:07;;;;;;;9.23;2.83;;;-0.10;99.90;;;;;;5050866;28;20037;-69
2022/04/03 03:04:35;;;;;;;7.32;3.42;;;-0.10;99.90;;;;;;5050483;28;20051;-68
2022/04/03 03:07:00;;;;;;;7.43;2.47;;;0.00;99.90;;;;;;5050660;28;20456;-68
2022/04/03 03:09:26;;;;;;;7.88;2.28;;;0.00;99.90;;;;;;5050312;28;20091;-68
2022/04/03 03:11:52;;;;;;;3.95;2.47;;;0.00;99.90;;;;;;5050224;28;20045;-69
2022/04/03 03:14:17;;;;;;;4.78;2.58;;;0.00;99.90;;;;;;5049903;28;20452;-68
2022/04/03 03:16:44;;;;;;;4.60;2.50;;;0.10;99.90;;;;;;5050104;28;20032;-69
2022/04/03 03:19:09;;;;;;;4.68;2.40;;;0.10;99.90;;;;;;5050380;28;20400;-70
2022/04/03 03:21:36;;;;;;;6.50;2.80;;;0.10;99.90;;;;;;5050289;28;20055;-69
2022/04/03 03:24:01;;;;;;;5.07;2.28;;;0.10;99.90;;;;;;5050056;28;20064;-67
2022/04/03 03:26:27;;;;;;;4.03;2.33;;;0.40;99.90;;;;;;5050097;28;20087;-68
2022/04/03 03:28:53;;;;;;;6.13;2.85;;;0.20;99.90;;;;;;5050093;28;20083;-68
2022/04/03 03:31:19;;;;;;;3.60;2.20;;;0.20;99.90;;;;;;5050025;28;20396;-69
2022/04/03 03:33:46;;;;;;;4.50;2.70;;;0.20;99.90;;;;;;5049656;28;20053;-68
2022/04/03 03:36:11;;;;;;;5.40;2.95;;;0.30;99.90;;;;;;5048946;28;20037;-68
2022/04/03 03:38:37;;;;;;;9.98;3.28;;;0.30;99.90;;;;;;5031593;28;20056;-69
2022/04/03 03:41:03;;;;;;;9.10;2.35;;;0.30;99.90;;;;;;5050127;28;20049;-68
2022/04/03 03:43:29;;;;;;;5.60;2.33;;;0.40;99.90;;;;;;5049951;28;20051;-68
2022/04/03 03:45:56;;;;;;;4.50;2.15;;;0.40;99.90;;;;;;5031866;28;20049;-71
2022/04/03 03:48:22;;;;;;;4.35;2.45;;;0.40;99.90;;;;;;5030366;28;20060;-68
2022/04/03 03:50:48;;;;;;;8.45;2.72;;;0.40;99.90;;;;;;5031777;28;20079;-68
2022/04/03 03:53:14;;;;;;;6.85;2.70;;;0.40;99.90;;;;;;5031775;28;20052;-68
2022/04/03 03:55:39;;;;;;;5.22;1.95;;;0.40;99.90;;;;;;5049476;28;20159;-69
2022/04/03 03:58:05;;;;;;;5.13;2.50;;;0.50;99.90;;;;;;5049115;28;20132;-69
2022/04/03 04:00:31;;;;;;;5.10;2.10;;;0.40;99.90;;;;;;5049869;28;20115;-67
2022/04/03 04:02:57;;;;;;;7.07;2.13;;;0.40;99.90;;;;;;5049652;28;20797;-68
2022/04/03 04:05:22;;;;;;;3.85;2.47;;;0.40;99.90;;;;;;5049712;28;20103;-70
2022/04/03 04:07:48;;;;;;;4.82;2.70;;;0.30;99.90;;;;;;5049345;28;20072;-68
2022/04/03 04:10:16;;;;;;;4.10;2.17;;;0.20;99.90;;;;;;5049237;28;20041;-69
2022/04/03 04:12:44;;;;;;;4.07;2.25;;;0.20;99.90;;;;;;5049704;28;20041;-70
2022/04/03 04:15:10;;;;;;;5.57;2.10;;;0.20;99.90;;;;;;5031253;28;20040;-69
2022/04/03 04:17:38;;;;;;;5.13;2.30;;;0.20;99.90;;;;;;5048825;28;20060;-69
2022/04/03 04:20:13;;;;;;;5.82;1.95;;;0.20;99.90;;;;;;5049276;28;20132;-70
2022/04/03 04:22:42;;;;;;;;;;;0.10;99.90;;;;;;5032023;28;20052;-70
2022/04/03 04:25:09;;;;;;;4.72;2.05;;;0.10;99.90;;;;;;5049203;28;19924;-69
2022/04/03 04:27:35;;;;;;;5.75;1.92;;;0.10;99.90;;;;;;5048783;28;20045;-70
2022/04/03 04:30:02;;;;;;;6.03;2.13;;;0.10;99.90;;;;;;5048501;28;20411;-70
2022/04/03 04:32:27;;;;;;;5.95;2.15;;;0.00;99.90;;;;;;5049393;28;20053;-71
2022/04/03 04:34:53;;;;;;;4.82;2.22;;;0.00;99.90;;;;;;5031305;28;20140;-69
2022/04/03 04:37:19;;;;;;;4.63;1.98;;;0.00;99.90;;;;;;5049188;28;20041;-70
2022/04/03 04:39:46;;;;;;;6.25;2.28;;;-0.10;99.90;;;;;;5030860;28;20056;-69
2022/04/03 04:42:12;;;;;;;5.82;2.20;;;-0.20;99.90;;;;;;5049197;28;20077;-68
2022/04/03 04:44:38;;;;;;;4.47;2.25;;;-0.20;99.90;;;;;;5049288;28;20049;-69
2022/04/03 04:47:04;;;;;;;3.97;1.88;;;-0.20;99.90;;;;;;5049693;28;20714;-69
2022/04/03 04:49:29;;;;;;;5.03;1.67;;;-0.20;99.90;;;;;;5053311;28;20637;-68
2022/04/03 04:51:55;;;;;;;3.30;1.70;;;-0.20;99.90;;;;;;5035305;28;20085;-70
2022/04/03 04:54:21;;;;;;;4.85;2.55;;;-0.20;99.90;;;;;;5052922;28;20052;-69
2022/04/03 04:56:46;;;;;;;3.83;2.33;;;-0.20;99.90;;;;;;5052630;28;20045;-68
2022/04/03 04:59:12;;;;;;;4.47;1.73;;;-0.20;99.90;;;;;;5035112;28;20512;-70
2022/04/03 05:01:39;;;;;;;7.95;1.77;;;-0.20;99.90;;;;;;5053055;28;20036;-69
2022/04/03 05:04:05;;;;;;;5.30;1.75;;;-0.20;99.90;;;;;;5052907;28;20567;-70
2022/04/03 05:06:34;;;;;;;4.97;2.00;;;-0.20;99.90;;;;;;5035111;28;20092;-70
2022/04/03 05:09:00;;;;;;;5.38;1.90;;;-0.30;99.90;;;;;;5017786;28;20066;-69
2022/04/03 05:11:27;;;;;;;6.38;1.60;;;-0.30;99.90;;;;;;5052616;28;20440;-69
2022/04/03 05:13:53;;;;;;;4.75;1.95;;;-0.30;99.90;;;;;;5052799;28;20127;-69
2022/04/03 05:16:19;;;;;;;3.08;1.50;;;-0.30;99.90;;;;;;5052477;28;20040;-69
2022/04/03 05:18:46;;;;;;;6.82;2.00;;;-0.40;99.90;;;;;;5034405;28;20049;-70
2022/04/03 05:21:12;;;;;;;3.78;1.98;;;-0.40;99.90;;;;;;5052442;28;20041;-68
2022/04/03 05:23:38;;;;;;;5.97;1.88;;;-0.40;99.90;;;;;;5053354;28;20445;-69
2022/04/03 05:26:05;;;;;;;2.97;1.65;;;-0.40;99.90;;;;;;5052399;28;20504;-69
2022/04/03 05:28:30;;;;;;;4.40;1.90;;;-0.40;99.90;;;;;;5034416;28;20156;-71
2022/04/03 05:30:56;;;;;;;4.78;2.10;;;-0.40;99.90;;;;;;5052635;28;20132;-73
2022/04/03 05:33:23;;;;;;;7.05;3.08;;;-0.40;99.90;;;;;;5052792;28;20091;-70
2022/04/03 05:35:49;;;;;;;5.13;2.40;;;-0.30;99.90;;;;;;5052477;28;20087;-69
2022/04/03 05:38:15;;;;;;;5.00;2.22;;;-0.30;99.90;;;;;;5052435;28;20049;-78
2022/04/03 05:40:40;;;;;;;8.75;2.47;;;-0.30;99.90;;;;;;5052214;28;20564;-68
2022/04/03 05:43:06;;;;;;;6.80;2.55;;;-0.30;99.90;;;;;;5052506;28;20051;-71
2022/04/03 05:45:32;;;;;;;7.32;2.05;;;-0.40;99.90;;;;;;5034804;28;20056;-70
2022/04/03 05:47:57;;;;;;;4.55;2.00;;;-0.30;99.90;;;;;;5052479;28;20037;-70
2022/04/03 05:50:23;;;;;;;4.55;1.92;;;-0.30;99.90;;;;;;5052151;28;20044;-69
2022/04/03 05:52:51;;;;;;;5.65;2.00;;;-0.20;99.90;;;;;;5034457;28;20463;-70
2022/04/03 05:55:19;;;;;;;8.70;2.00;;;-0.20;99.90;;;;;;5052024;28;20098;-75
2022/04/03 05:57:46;;;;;;;5.20;1.90;;;-0.10;99.90;;;;;;5051861;28;20538;-73
2022/04/03 06:00:13;;;;;;;5.22;2.20;;;-0.10;99.90;;;;;;5050554;28;20056;-67
2022/04/03 06:02:47;;;;;;;5.55;2.00;;;0.00;99.90;;;;;;5050622;28;20086;-70
2022/04/03 06:05:13;;;;;;;7.25;2.55;;;0.00;99.90;;;;;;5051980;28;20049;-69
2022/04/03 06:07:39;;;;;;;5.07;2.10;;;0.10;99.90;;;;;;5033556;28;20174;-70
2022/04/03 06:10:05;;;;;;;4.47;1.95;;;0.10;99.90;;;;;;5051515;28;20094;-69
2022/04/03 06:12:31;;;;;;;4.15;1.63;;;0.20;99.90;;;;;;5051222;28;20033;-69
2022/04/03 06:14:57;;;;;;;4.10;1.70;;;0.20;99.90;;;;;;5051459;28;20037;-70
2022/04/03 06:17:23;;;;;;;3.28;1.40;;;0.30;99.90;;;;;;5051513;28;20048;-69
2022/04/03 06:19:49;;;;;;;4.90;1.88;;;0.40;99.90;;;;;;5051520;28;20097;-69
2022/04/03 06:22:15;;;;;;;5.25;1.70;;;0.50;99.90;;;;;;5051090;28;20052;-69
2022/04/03 06:24:41;;;;;;;3.80;1.83;;;0.50;99.90;;;;;;5051633;28;20045;-69
2022/04/03 06:27:06;;;;;;;3.58;1.63;;;0.60;99.90;;;;;;5051039;28;20040;-68
2022/04/03 06:29:32;;;;;;;8.45;2.30;;;0.70;99.90;;;;;;5032670;28;20048;-71
2022/04/03 06:31:58;;;;;;;7.45;1.88;;;0.80;99.90;;;;;;5051189;28;20086;-72
2022/04/03 06:34:24;;;;;;;4.63;1.80;;;0.90;99.90;;;;;;5051162;28;20446;-70
2022/04/03 06:36:50;;;;;;;3.58;1.58;;;1.30;99.90;;;;;;5032977;28;20098;-69
2022/04/03 06:39:16;;;;;;;6.93;2.00;;;1.00;99.90;;;;;;5033591;28;20128;-72
2022/04/03 06:41:42;;;;;;;9.50;1.63;;;1.20;99.90;;;;;;5033248;28;20131;-70
2022/04/03 06:44:08;;;;;;;4.78;1.88;;;1.30;99.90;;;;;;5050280;28;20041;-70
2022/04/03 06:46:34;;;;;;;5.85;1.80;;;1.40;99.90;;;;;;5050531;28;20492;-69
2022/04/03 06:49:00;;;;;;;6.57;1.98;;;1.50;99.90;;;;;;5015710;28;20053;-70
2022/04/03 06:51:26;;;;;;;4.78;1.80;;;1.60;99.90;;;;;;5050684;28;20487;-75
2022/04/03 06:53:52;;;;;;;10.23;1.83;;;1.90;99.90;;;;;;5050407;28;20048;-70
2022/04/03 06:56:19;;;;;;;11.18;1.95;;;1.80;99.90;;;;;;5050754;28;20446;-70
2022/04/03 06:58:45;;;;;;;5.00;1.55;;;2.00;99.90;;;;;;5050858;28;20483;-70
2022/04/03 07:01:11;;;;;;;4.30;1.80;;;2.10;99.90;;;;;;5049698;28;20052;-71
2022/04/03 07:03:37;;;;;;;8.07;1.50;;;2.20;99.90;;;;;;5050831;28;20361;-71
2022/04/03 07:06:03;;;;;;;5.45;1.95;;;2.30;99.90;;;;;;5050515;28;20471;-72
2022/04/03 07:08:29;;;;;;;6.90;1.92;;;2.40;99.90;;;;;;5050237;28;20503;-71
2022/04/03 07:10:55;;;;;;;5.78;1.95;;;2.50;99.90;;;;;;5050310;28;20049;-69
2022/04/03 07:13:21;;;;;;;5.75;1.77;;;2.60;99.90;;;;;;5050458;28;20434;-71
2022/04/03 07:15:49;;;;;;;4.88;1.63;;;2.70;99.90;;;;;;5050947;28;20116;-71
2022/04/03 07:18:16;;;;;;;7.72;1.55;;;2.80;99.90;;;;;;5049789;28;20037;-81
2022/04/03 07:20:46;;;;;;;4.10;1.80;;;2.90;99.90;;;;;;5032641;28;20140;-70
2022/04/03 07:23:12;;;;;;;9.23;2.38;;;3.00;99.90;;;;;;5049804;28;20396;-70
2022/04/03 07:25:38;;;;;;;3.85;1.40;;;3.00;99.90;;;;;;5032505;28;20052;-71
2022/04/03 07:28:04;;;;;;;8.25;1.95;;;3.10;99.90;;;;;;5032333;28;20403;-69
2022/04/03 07:30:29;;;;;;;5.88;1.77;;;3.20;99.90;;;;;;5032164;28;20053;-70
2022/04/03 07:32:55;;;;;;;9.27;1.80;;;3.30;99.90;;;;;;5049769;28;20041;-70
2022/04/03 07:35:21;;;;;;;3.03;1.15;;;3.50;99.90;;;;;;5050089;28;20492;-71
2022/04/03 07:37:47;;;;;;;4.13;1.33;;;3.60;99.90;;;;;;5049818;28;20045;-72
2022/04/03 07:40:13;;;;;;;4.93;1.30;;;4.10;99.90;;;;;;5050371;28;20045;-70
2022/04/03 07:42:39;;;;;;;8.27;1.75;;;3.80;99.90;;;;;;5050234;28;20400;-70
2022/04/03 07:45:06;;;;;;;10.07;0.98;;;4.10;99.90;;;;;;5049997;28;20488;-71
2022/04/03 07:47:32;;;;;;;6.10;1.40;;;4.20;99.90;;;;;;5049822;28;20052;-71
2022/04/03 07:49:58;;;;;;;4.00;1.00;;;4.80;99.90;;;;;;5050235;28;20037;-70
2022/04/03 07:52:24;;;;;;;2.17;0.98;;;5.20;99.90;;;;;;5049963;28;20427;-70
2022/04/03 07:54:50;;;;;;;3.50;1.00;;;4.50;99.90;;;;;;5050130;28;20048;-70
2022/04/03 07:57:19;;;;;;;4.82;1.10;;;4.60;99.90;;;;;;5050042;28;20134;-69
2022/04/03 07:59:46;;;;;;;7.35;1.25;;;5.80;99.90;;;;;;5049998;28;20053;-71
2022/04/03 08:02:13;;;;;;;1.60;0.88;;;5.90;99.90;;;;;;5032001;28;20052;-72
2022/04/03 08:04:38;;;;;;;2.50;0.80;;;5.00;99.90;;;;;;5049335;28;20090;-70
2022/04/03 08:07:04;;;;;;;6.00;1.08;;;6.10;99.90;;;;;;5049852;28;20049;-74
2022/04/03 08:09:30;;;;;;;3.90;1.27;;;5.10;99.90;;;;;;5049777;28;20037;-70
2022/04/03 08:11:56;;;;;;;2.10;0.80;;;5.10;99.90;;;;;;5050113;28;20095;-73
2022/04/03 08:14:22;;;;;;;5.55;1.02;;;5.30;99.90;;;;;;5049252;28;20778;-72
2022/04/03 08:16:48;;;;;;;4.78;0.95;;;6.00;99.90;;;;;;5049558;28;20056;-78
2022/04/03 08:19:14;;;;;;;6.25;1.15;;;6.50;99.90;;;;;;5049222;28;20041;-71
2022/04/03 08:21:40;;;;;;;6.35;1.70;;;5.50;99.90;;;;;;5049321;28;20044;-71
2022/04/03 08:24:06;;;;;;;3.38;0.90;;;5.40;99.90;;;;;;5031418;28;20045;-73
2022/04/03 08:26:31;;;;;;;4.85;1.15;;;5.40;99.90;;;;;;5049570;28;20041;-80
2022/04/03 08:28:57;;;;;;;4.07;1.13;;;5.40;99.90;;;;;;5049413;28;20042;-72
2022/04/03 08:31:23;;;;;;;4.97;1.38;;;6.00;99.90;;;;;;5049688;28;20045;-73
2022/04/03 08:33:52;;;;;;;2.65;1.20;;;6.00;99.90;;;;;;5030597;28;20055;-73
2022/04/03 08:36:18;;;;;;;6.85;1.38;;;6.40;99.90;;;;;;5048425;28;20045;-79
2022/04/03 08:38:45;;;;;;;2.85;0.93;;;6.80;99.90;;;;;;5030687;28;20060;-72
2022/04/03 08:41:11;;;;;;;3.92;1.00;;;8.00;99.90;;;;;;5049451;28;20043;-75
2022/04/03 08:43:40;;;;;;;3.67;0.95;;;8.20;99.90;;;;;;5049277;28;20288;-72
2022/04/03 08:46:07;;;;;;;4.63;1.85;;;7.50;99.90;;;;;;5031629;28;20051;-75
2022/04/03 08:48:33;;;;;;;3.10;1.10;;;7.50;99.90;;;;;;5031975;28;20061;-74
2022/04/03 08:51:02;;;;;;;4.88;1.30;;;7.20;99.90;;;;;;5049606;28;20094;-71
2022/04/03 08:53:30;;;;;;;6.07;1.10;;;7.20;99.90;;;;;;5049445;28;20120;-75
2022/04/03 08:55:56;;;;;;;5.18;1.45;;;7.90;99.90;;;;;;5049215;28;20439;-71
2022/04/03 08:58:22;;;;;;;6.28;1.20;;;7.60;99.90;;;;;;5049595;28;20118;-74
2022/04/03 09:00:47;;;;;;;2.78;1.10;;;7.10;99.90;;;;;;5049625;28;20079;-74
2022/04/03 09:03:13;;;;;;;3.22;0.80;;;6.70;99.90;;;;;;5049811;28;20504;-74
2022/04/03 09:05:41;;;;;;;1.85;0.60;;;7.30;99.90;;;;;;5030082;28;20045;-73
2022/04/03 09:08:09;;;;;;;1.55;0.60;;;7.70;99.90;;;;;;5049592;28;20041;-76
2022/04/03 09:10:35;;;;;;;2.45;0.77;;;7.00;99.90;;;;;;5049527;28;20496;-77
2022/04/03 09:13:01;;;;;;;1.30;0.68;;;7.10;99.90;;;;;;5049284;28;20048;-80
2022/04/03 09:15:29;;;;;;;7.28;0.85;;;8.30;99.90;;;;;;5049442;28;20047;-73
2022/04/03 09:18:01;;;;;;;7.50;1.10;;;8.00;99.90;;;;;;5049664;28;20842;-81
2022/04/03 09:20:32;;;;;;;5.63;0.98;;;7.00;99.90;;;;;;5049236;28;20103;-75
2022/04/03 09:23:02;;;;;;;2.08;0.90;;;7.50;99.90;;;;;;5049185;28;20048;-71
2022/04/03 09:25:29;;;;;;;4.63;1.00;;;7.40;99.90;;;;;;5049778;28;20048;-73
2022/04/03 09:27:58;;;;;;;3.28;0.60;;;7.50;99.90;;;;;;5049699;28;20068;-72
2022/04/03 09:30:28;;;;;;;1.85;0.80;;;6.40;99.90;;;;;;5049382;28;20106;-71
2022/04/03 09:32:56;;;;;;;3.42;1.00;;;7.10;99.90;;;;;;5049594;28;20044;-70
2022/04/03 09:35:25;;;;;;;2.50;0.85;;;7.30;99.90;;;;;;5053097;28;20052;-77
2022/04/03 09:38:09;;;;;;;2.83;1.00;;;7.80;99.90;;;;;;5053090;28;20133;-78
2022/04/03 09:40:37;;;;;;;3.22;0.95;;;8.10;99.90;;;;;;5052932;28;20385;-69
2022/04/03 09:43:11;;;;;;;3.53;0.65;;;8.50;99.90;;;;;;5052997;28;20438;-72
2022/04/03 09:45:47;;;;;;;1.63;0.40;;;8.30;99.90;;;;;;5053113;28;20049;-72
2022/04/03 09:48:23;;;;;;;2.17;0.60;;;8.20;99.90;;;;;;5053185;28;20514;-71
2022/04/03 09:50:59;;;;;;;3.38;0.60;;;8.10;99.90;;;;;;5053130;28;20052;-70
2022/04/03 09:53:28;;;;;;;4.15;0.63;;;7.90;99.90;;;;;;5047656;28;20037;-72
2022/04/03 09:55:54;;;;;;;6.90;1.00;;;7.80;99.90;;;;;;5053226;28;20052;-69
2022/04/03 09:58:20;;;;;;;4.50;0.70;;;7.90;99.90;;;;;;5053103;28;20440;-71
2022/04/03 10:00:46;;;;;;;4.13;0.73;;;8.60;99.90;;;;;;5052821;28;20139;-75
2022/04/03 10:03:13;;;;;;;3.90;0.75;;;9.00;99.90;;;;;;5052759;28;20403;-75
2022/04/03 10:05:41;;;;;;;2.88;0.50;;;8.80;99.90;;;;;;5052798;28;20120;-71
2022/04/03 10:08:07;;;;;;;4.88;0.68;;;8.70;99.90;;;;;;5052454;28;20667;-74
2022/04/03 10:10:35;;;;;;;2.70;0.50;;;8.60;99.90;;;;;;5052681;28;20106;-73
2022/04/03 10:13:02;;;;;;;3.95;0.70;;;8.80;99.90;;;;;;5052230;28;20159;-74
2022/04/03 10:15:28;;;;;;;6.47;0.55;;;9.50;99.90;;;;;;5052147;28;20191;-78
2022/04/03 10:17:55;;;;;;;2.75;0.60;;;9.90;99.90;;;;;;5034513;28;20045;-73
2022/04/03 10:20:25;;;;;;;4.43;0.60;;;9.80;99.90;;;;;;5052552;28;20059;-71
2022/04/03 10:22:56;;;;;;;4.15;0.63;;;10.00;99.90;;;;;;5052322;28;20050;-73
2022/04/03 10:25:31;;;;;;;4.88;0.60;;;9.30;99.90;;;;;;5051904;28;20061;-72
2022/04/03 10:28:01;;;;;;;4.10;0.70;;;9.00;99.90;;;;;;5052258;28;20492;-74
2022/04/03 10:30:39;;;;;;;4.13;0.70;;;8.80;99.90;;;;;;5051714;28;20041;-71
2022/04/03 10:33:06;;;;;;;3.70;0.80;;;8.40;99.90;;;;;;5052146;28;20040;-71
2022/04/03 10:35:32;;;;;;;2.70;0.70;;;8.30;99.90;;;;;;5052392;28;20459;-72
2022/04/03 10:38:05;;;;;;;4.20;0.60;;;8.20;99.90;;;;;;5052174;28;20131;-73
2022/04/03 10:40:34;;;;;;;3.13;0.80;;;8.10;99.90;;;;;;5033290;28;20053;-77
2022/04/03 10:43:06;;;;;;;5.07;0.80;;;8.00;99.90;;;;;;5052004;28;20041;-76
2022/04/03 10:45:46;;;;;;;1.65;0.88;;;8.30;99.90;;;;;;5051657;28;20045;-70
2022/04/03 10:48:21;;;;;;;2.28;0.60;;;8.10;99.90;;;;;;5035049;28;20407;-72
2022/04/03 10:51:21;;;;;;;1.95;0.38;;;8.00;99.90;;;;;;5051720;28;20475;-71
2022/04/03 10:53:54;;;;;;;2.28;0.70;;;7.80;99.90;;;;;;5033539;28;20049;-71
2022/04/03 10:56:26;;;;;;;1.20;0.40;;;7.80;99.90;;;;;;5017603;28;20055;-70
2022/04/03 10:58:53;;;;;;;3.30;0.50;;;7.90;99.90;;;;;;5051885;28;20041;-70
2022/04/03 11:01:31;;;;;;;0.85;0.30;;;7.90;99.90;;;;;;5051209;28;20056;-75
2022/04/03 11:04:13;;;;;;;2.38;0.32;;;8.00;99.90;;;;;;5051654;28;20051;-72
2022/04/03 11:06:41;;;;;;;2.67;0.30;;;8.00;99.90;;;;;;5051270;28;20066;-74
2022/04/03 11:09:11;;;;;;;2.20;0.30;;;8.10;99.90;;;;;;5051462;28;20051;-79
2022/04/03 11:11:40;;;;;;;2.05;0.22;;;8.00;99.90;;;;;;5031838;28;20055;-71
2022/04/03 11:14:08;;;;;;;1.73;0.30;;;8.00;99.90;;;;;;5051157;28;20045;-72
2022/04/03 11:16:51;;;;;;;1.10;0.32;;;8.00;99.90;;;;;;5051198;28;20049;-70
2022/04/03 11:19:44;;;;;;;0.82;0.20;;;8.00;99.90;;;;;;5031566;28;20041;-73
2022/04/03 11:22:14;;;;;;;1.48;0.40;;;8.30;99.90;;;;;;5030930;28;20568;-68
2022/04/03 11:24:39;;;;;;;1.05;0.30;;;8.80;99.90;;;;;;5029728;28;20115;-71
2022/04/03 11:27:07;;;;;;;1.38;0.30;;;8.90;99.90;;;;;;5030965;28;20041;-72
2022/04/03 11:29:34;;;;;;;2.28;0.40;;;9.10;99.90;;;;;;5031190;28;20404;-70
2022/04/03 11:32:03;;;;;;;3.42;0.45;;;9.20;99.90;;;;;;5021147;28;20045;-73
2022/04/03 11:34:31;;;;;;;3.10;0.50;;;9.30;99.90;;;;;;5050664;28;20033;-72
2022/04/03 11:36:58;;;;;;;1.58;0.40;;;9.80;99.90;;;;;;5050765;28;20089;-78
2022/04/03 11:39:36;;;;;;;1.48;0.38;;;10.10;99.90;;;;;;5050801;28;20523;-78
2022/04/03 11:42:04;;;;;;;3.45;0.63;;;9.90;99.90;;;;;;5050361;28;20139;-77
2022/04/03 11:44:29;;;;;;;3.60;0.60;;;9.50;99.90;;;;;;5050871;28;20072;-75
2022/04/03 11:46:55;;;;;;;1.95;0.30;;;9.40;99.90;;;;;;5050592;28;20130;-79
2022/04/03 11:49:28;;;;;;;4.40;0.50;;;9.80;99.90;;;;;;5050767;28;20090;-76
2022/04/03 11:52:14;;;;;;;0.82;0.20;;;8.80;99.90;;;;;;5050407;28;20046;-80
2022/04/03 11:54:54;;;;;;;1.75;0.30;;;8.50;99.90;;;;;;5050096;28;20095;-69
2022/04/03 11:57:20;;;;;;;0.50;0.20;;;9.20;99.90;;;;;;5049211;28;20112;-72
2022/04/03 11:59:46;;;;;;;1.75;0.20;;;8.30;99.90;;;;;;5050447;28;20080;-71
2022/04/03 12:02:15;;;;;;;0.60;0.20;;;8.20;99.90;;;;;;5050377;28;20045;-77
2022/04/03 12:04:42;;;;;;;1.75;0.13;;;8.10;99.90;;;;;;5050317;28;20072;-74
2022/04/03 12:07:14;;;;;;;3.13;0.40;;;8.20;99.90;;;;;;5049907;28;20052;-72
2022/04/03 12:09:42;;;;;;;3.35;0.38;;;8.10;99.90;;;;;;5050397;28;20387;-72
2022/04/03 12:12:09;;;;;;;1.90;0.28;;;8.60;99.90;;;;;;5050626;28;20074;-72
2022/04/03 12:14:37;;;;;;;1.55;0.47;;;8.20;99.90;;;;;;5049990;28;20045;-71
2022/04/03 12:17:09;;;;;;;1.35;0.45;;;8.20;99.90;;;;;;5049931;28;20443;-74
2022/04/03 12:19:47;;;;;;;2.15;0.50;;;8.20;99.90;;;;;;5049790;28;20074;-72
2022/04/03 12:22:18;;;;;;;1.75;0.50;;;8.30;99.90;;;;;;5050241;28;20045;-72
2022/04/03 12:24:45;;;;;;;0.88;0.40;;;8.70;99.90;;;;;;5050102;28;20488;-74
2022/04/03 12:27:14;;;;;;;2.05;0.50;;;9.00;99.90;;;;;;5050258;28;20125;-71
2022/04/03 12:29:48;;;;;;;6.57;0.50;;;9.30;99.90;;;;;;5049603;28;20230;-72
2022/04/03 12:32:16;;;;;;;4.87;0.80;;;9.30;99.90;;;;;;5049643;28;20061;-71
2022/04/03 12:34:44;;;;;;;3.60;0.77;;;9.20;99.90;;;;;;5049977;28;20049;-72
2022/04/03 12:37:12;;;;;;;4.43;0.90;;;9.10;99.90;;;;;;5032092;28;20048;-72
2022/04/03 12:39:46;;;;;;;3.60;0.40;;;9.30;99.90;;;;;;5049609;28;20055;-75
2022/04/03 12:42:26;;;;;;;5.63;0.60;;;9.50;99.90;;;;;;5032152;28;20484;-75
2022/04/03 12:45:06;;;;;;;2.53;0.60;;;9.50;99.90;;;;;;5049935;28;20044;-71
2022/04/03 12:47:32;;;;;;;4.70;0.90;;;9.30;99.90;;;;;;5050047;28;20044;-76
2022/04/03 12:50:10;;;;;;;2.97;0.70;;;9.40;99.90;;;;;;5049596;28;20782;-75
2022/04/03 12:52:42;;;;;;;3.13;0.75;;;9.10;99.90;;;;;;5049886;28;20056;-79
2022/04/03 13:01:14;;;;;;;3.22;0.77;;;8.80;99.90;;;;;;5049216;28;20508;-72